< < Back
Terminal Aerodrome Forecast


Current Version              Previous Versions:   1  2  3  4  5  6  7  8  9  

Terminal Aerodrome Forecast

148
FTUS42 KCHS 042329
TAFCHS
TAF
KCHS 042329Z 0500/0524 28006KT P6SM SKC
     FM051300 29013G19KT P6SM SCT060
     FM051800 29015G23KT P6SM SCT050=

Latest METAR

653
SAUS80 KWBC 050100 RRA
MTRCHS
METAR KCHS 050056Z 29006KT 10SM CLR 21/08 A2964 RMK AO2 SLP035
T02110078


USA.gov is the U.S. government's official web portal to all federal, state and local government web resources and services.